Woodcote, United Kingdom
Current Conditions -  °F | °C
As of 10:50 PM on Wednesday 22 Oct 2014 (Local Time) from EGOS Reporting Station
Broken Clouds Broken Clouds  
Wind Chill: 54°   Ceiling: 9000
Heat Index: 54°   Visibility: 6mi
Dew Point: 46°   Wind: 12mph
Humidity: 77%   Direction: 210°SSW
Pressure: 30.12"   Gusts: NA
Location:  52.73°N, 2.33°W
Report Text: EGOS 222150Z AUTO 21010KT 9999 FEW027/// BKN090/// 12/08 Q1020
Loading
Personal Weather Stations






























Interactive Weather Map New forecast layout! Learn more

10-Day Weather Forecast

Advertisements
Track Severe Weather on mobile